Time;durP1;ratioP1;P1;durP2;ratioP2;P2;SDS_P1;SDS_P2;PMS_P1;PMS_P2;Temp;Humidity;BMP_temperature;BMP_pressure;BME280_temperature;BME280_humidity;BME280_pressure;Samples;Min_cycle;Max_cycle;Signal;HPM_P1;HPM_P2
2022/01/16 00:00:10;;;;;;;46.87;25.27;;;;;;;0.73;100.00;102391.66;5094403;28;20028;-36
2022/01/16 00:05:19;;;;;;;52.45;27.27;;;;;;;0.66;100.00;102413.56;5094193;28;20065;-36
2022/01/16 00:07:44;;;;;;;42.08;25.15;;;;;;;0.75;100.00;102400.34;5093640;28;20024;-36
2022/01/16 00:10:10;;;;;;;40.53;25.83;;;;;;;0.78;100.00;102428.50;5093900;28;20035;-36
2022/01/16 00:12:36;;;;;;;44.50;26.00;;;;;;;0.80;100.00;102431.06;5093338;28;20028;-36
2022/01/16 00:15:03;;;;;;;39.28;25.38;;;;;;;0.74;100.00;102403.97;5093787;28;20514;-36
2022/01/16 00:17:34;;;;;;;39.72;25.27;;;;;;;0.78;100.00;102417.84;5093933;28;20453;-36
2022/01/16 00:19:59;;;;;;;43.85;26.67;;;;;;;0.73;100.00;102415.59;5093750;28;20383;-37
2022/01/16 00:22:27;;;;;;;42.33;25.50;;;;;;;0.85;100.00;102421.72;5092649;28;20028;-36
2022/01/16 00:24:53;;;;;;;41.80;24.83;;;;;;;0.74;100.00;102427.09;5093853;28;20028;-36
2022/01/16 00:27:18;;;;;;;42.67;26.97;;;;;;;0.74;100.00;102419.13;5093525;28;20073;-36
2022/01/16 00:29:44;;;;;;;38.30;24.63;;;;;;;0.75;100.00;102404.81;5093677;28;20061;-37
2022/01/16 00:32:09;;;;;;;34.27;22.03;;;;;;;0.90;100.00;102405.34;5093539;28;20039;-36
2022/01/16 00:34:35;;;;;;;41.37;25.17;;;;;;;0.73;100.00;102383.66;5093572;28;20032;-36
2022/01/16 00:37:00;;;;;;;48.60;27.50;;;;;;;0.83;100.00;102417.47;5093737;28;20322;-36
2022/01/16 00:39:25;;;;;;;38.33;24.57;;;;;;;0.88;100.00;102412.59;5093920;28;20077;-37
2022/01/16 00:41:51;;;;;;;43.10;26.33;;;;;;;0.84;100.00;102421.84;5092012;28;20113;-36
2022/01/16 00:44:16;;;;;;;37.80;24.60;;;;;;;0.89;100.00;102420.47;5093049;28;20024;-36
2022/01/16 00:46:41;;;;;;;41.23;24.63;;;;;;;0.81;100.00;102406.13;5093553;28;20028;-36
2022/01/16 00:49:07;;;;;;;40.00;24.30;;;;;;;0.86;100.00;102410.06;5093642;28;20038;-36
2022/01/16 00:51:32;;;;;;;44.73;26.93;;;;;;;0.86;100.00;102414.56;5092986;28;20522;-36
2022/01/16 00:53:57;;;;;;;42.20;25.47;;;;;;;0.81;100.00;102419.44;5093574;28;20486;-36
2022/01/16 00:56:23;;;;;;;39.40;25.43;;;;;;;0.83;100.00;102409.47;5093792;28;20380;-36
2022/01/16 00:58:48;;;;;;;48.67;26.63;;;;;;;0.80;100.00;102380.47;5093182;28;20073;-36
2022/01/16 01:01:14;;;;;;;49.57;27.53;;;;;;;0.82;100.00;102375.84;5093495;28;20409;-36
2022/01/16 01:03:40;;;;;;;47.67;25.77;;;;;;;0.81;100.00;102375.00;5093359;28;20104;-36
2022/01/16 01:06:06;;;;;;;48.67;27.45;;;;;;;0.85;100.00;102391.56;5093189;28;20032;-36
2022/01/16 01:08:32;;;;;;;51.03;28.08;;;;;;;0.85;100.00;102386.25;5091868;28;20024;-36
2022/01/16 01:10:58;;;;;;;49.57;27.37;;;;;;;0.82;100.00;102387.34;5093112;28;20073;-36
2022/01/16 01:13:33;;;;;;;;;;;;;;;0.96;100.00;102391.50;5091511;28;20758;-36
2022/01/16 01:16:04;;;;;;;41.08;25.48;;;;;;;0.90;100.00;102389.38;5093907;28;19915;-36
2022/01/16 01:18:34;;;;;;;50.13;27.30;;;;;;;0.93;100.00;102383.78;5092984;28;20028;-36
2022/01/16 01:21:02;;;;;;;46.85;26.65;;;;;;;0.80;100.00;102351.19;5093276;28;20048;-36
2022/01/16 01:23:28;;;;;;;50.90;26.65;;;;;;;1.02;100.00;102382.97;5093535;28;20024;-36
2022/01/16 01:25:53;;;;;;;53.70;27.20;;;;;;;0.81;100.00;102328.88;5096924;28;20472;-36
2022/01/16 01:28:18;;;;;;;46.33;27.70;;;;;;;0.97;100.00;102378.03;5097134;28;20252;-36
2022/01/16 01:30:44;;;;;;;48.67;25.93;;;;;;;1.01;100.00;102387.47;5097658;28;20360;-36
2022/01/16 01:33:13;;;;;;;44.83;25.48;;;;;;;0.91;100.00;102364.41;5096521;28;20039;-37
2022/01/16 01:35:39;;;;;;;58.22;28.20;;;;;;;0.88;100.00;102370.84;5097009;28;20348;-37
2022/01/16 01:38:06;;;;;;;;;;;;;;;0.96;100.00;102333.75;5097621;28;20055;-36
2022/01/16 01:40:32;;;;;;;51.88;26.02;;;;;;;0.93;100.00;102307.38;5097207;28;19918;-36
2022/01/16 01:51:14;;;;;;;;;;;;;;;0.98;100.00;102330.97;5096992;28;20038;-37
2022/01/16 01:53:40;;;;;;;49.95;24.48;;;;;;;1.00;100.00;102359.16;5096184;28;19915;-36
2022/01/16 01:56:09;;;;;;;71.07;31.02;;;;;;;0.84;100.00;102363.25;5097253;28;20360;-36
2022/01/16 01:58:34;;;;;;;68.00;29.70;;;;;;;0.86;100.00;102369.28;5096316;28;20107;-36
2022/01/16 02:01:00;;;;;;;63.15;29.58;;;;;;;0.82;100.00;102375.84;5096608;28;20039;-36
2022/01/16 02:05:57;;;;;;;67.40;29.80;;;;;;;0.91;100.00;102386.56;5096289;28;20440;-36
2022/01/16 02:08:23;;;;;;;55.13;28.05;;;;;;;0.97;100.00;102388.69;5096379;28;20059;-36
2022/01/16 02:10:49;;;;;;;71.25;31.02;;;;;;;0.87;100.00;102389.63;5096404;28;20024;-36
2022/01/16 02:13:28;;;;;;;76.30;32.43;;;;;;;0.85;100.00;102383.59;5096298;28;20112;-37
2022/01/16 02:30:00;;;;;;;76.43;30.55;;;;;;;0.97;100.00;102403.84;5096297;28;20043;-36
2022/01/16 02:34:42;;;;;;;78.53;30.70;;;;;;;0.91;100.00;102410.53;5094929;28;20071;-36
2022/01/16 02:37:12;;;;;;;71.15;31.58;;;;;;;0.94;100.00;102409.44;5093966;28;20081;-36
2022/01/16 02:39:41;;;;;;;71.57;31.38;;;;;;;0.90;100.00;102400.84;5093709;28;20461;-36
2022/01/16 02:42:09;;;;;;;68.55;32.70;;;;;;;0.98;100.00;102408.22;5095450;28;20063;-36
2022/01/16 02:44:43;;;;;;;74.03;31.83;;;;;;;0.87;100.00;102384.28;5095421;28;20085;-36
2022/01/16 02:47:17;;;;;;;83.85;33.97;;;;;;;0.87;100.00;102395.78;5095682;28;20379;-36
2022/01/16 02:49:44;;;;;;;72.63;32.88;;;;;;;0.85;100.00;102378.25;5095273;28;20024;-36
2022/01/16 02:52:15;;;;;;;80.60;34.33;;;;;;;0.76;100.00;102361.22;5095759;28;20051;-36
2022/01/16 02:54:43;;;;;;;80.00;35.22;;;;;;;0.77;100.00;102376.22;5095046;28;20451;-36
2022/01/16 02:57:14;;;;;;;87.35;33.53;;;;;;;0.77;100.00;102370.91;5095155;28;20055;-36
2022/01/16 02:59:44;;;;;;;68.13;32.90;;;;;;;0.80;100.00;102356.50;5095613;28;20032;-36
2022/01/16 03:02:09;;;;;;;74.68;33.10;;;;;;;0.71;100.00;102348.31;5095074;28;20085;-36
2022/01/16 03:04:35;;;;;;;76.63;34.67;;;;;;;0.64;100.00;102344.50;5094802;28;20024;-36
2022/01/16 03:07:03;;;;;;;77.17;33.67;;;;;;;0.60;100.00;102340.38;5094697;28;20054;-36
2022/01/16 03:09:43;;;;;;;79.22;32.72;;;;;;;0.62;100.00;102337.59;5095122;28;20043;-36
2022/01/16 03:12:09;;;;;;;78.65;35.55;;;;;;;0.66;100.00;102347.00;5095115;28;20024;-36
2022/01/16 03:14:35;;;;;;;;;;;;;;;0.79;100.00;102347.66;5095803;28;20024;-36
2022/01/16 03:17:01;;;;;;;59.60;29.95;;;;;;;0.73;100.00;102341.06;5094708;28;20268;-36
2022/01/16 03:22:10;;;;;;;73.95;34.38;;;;;;;0.69;100.00;102339.63;5095257;28;20051;-36
2022/01/16 03:24:38;;;;;;;62.90;33.03;;;;;;;0.67;100.00;102340.72;5095015;28;20032;-36
2022/01/16 03:27:05;;;;;;;63.58;33.03;;;;;;;0.73;100.00;102346.38;5094605;28;20024;-36
2022/01/16 03:29:31;;;;;;;61.50;30.38;;;;;;;0.73;100.00;102330.41;5095346;28;20045;-36
2022/01/16 03:32:01;;;;;;;67.80;32.95;;;;;;;0.74;100.00;102331.25;5095344;28;20180;-36
2022/01/16 03:34:27;;;;;;;59.80;31.60;;;;;;;0.72;100.00;102331.34;5094725;28;20067;-36
2022/01/16 03:36:52;;;;;;;66.60;33.22;;;;;;;0.76;100.00;102323.94;5094372;28;20055;-36
2022/01/16 03:39:18;;;;;;;62.13;32.47;;;;;;;0.64;100.00;102304.56;5093935;28;20024;-36
2022/01/16 03:41:44;;;;;;;60.67;31.70;;;;;;;0.61;100.00;102293.31;5094562;28;20038;-36
2022/01/16 03:44:10;;;;;;;60.97;31.85;;;;;;;0.73;100.00;102309.09;5094512;28;20436;-36
2022/01/16 03:46:37;;;;;;;62.53;31.43;;;;;;;0.75;100.00;102309.78;5093157;28;20122;-36
2022/01/16 03:49:08;;;;;;;60.63;30.88;;;;;;;0.77;100.00;102309.66;5094154;28;20273;-36
2022/01/16 03:51:36;;;;;;;66.85;33.30;;;;;;;0.72;100.00;102330.50;5094203;28;20029;-36
2022/01/16 03:54:03;;;;;;;62.25;31.83;;;;;;;0.63;100.00;102308.16;5094706;28;20051;-36
2022/01/16 03:56:29;;;;;;;57.60;32.03;;;;;;;0.67;100.00;102311.41;5093948;28;20028;-36
2022/01/16 03:58:54;;;;;;;62.53;32.63;;;;;;;0.76;100.00;102334.59;5093972;28;20032;-36
2022/01/16 04:01:20;;;;;;;57.93;29.30;;;;;;;0.86;100.00;102332.00;5094397;28;20032;-37
2022/01/16 04:03:45;;;;;;;64.73;32.43;;;;;;;0.77;100.00;102326.47;5093677;28;20520;-37
2022/01/16 04:06:11;;;;;;;62.60;33.47;;;;;;;0.80;100.00;102337.84;5094578;28;20024;-36
2022/01/16 04:08:37;;;;;;;62.15;33.58;;;;;;;0.77;100.00;102333.63;5094053;28;20482;-40
2022/01/16 04:11:02;;;;;;;67.70;33.60;;;;;;;0.76;100.00;102332.78;5094613;28;20035;-36
2022/01/16 04:13:28;;;;;;;64.17;31.83;;;;;;;0.84;100.00;102325.97;5093699;28;20063;-36
2022/01/16 04:15:53;;;;;;;68.20;34.87;;;;;;;0.80;100.00;102324.53;5093933;28;20286;-36
2022/01/16 04:18:18;;;;;;;60.20;32.83;;;;;;;0.84;100.00;102315.31;5093691;28;20036;-36
2022/01/16 04:20:44;;;;;;;65.10;35.90;;;;;;;0.73;100.00;102302.91;5091906;28;20047;-36
2022/01/16 04:23:12;;;;;;;68.20;35.70;;;;;;;0.84;100.00;102315.31;5093543;28;20023;-36
2022/01/16 04:25:37;;;;;;;69.00;37.08;;;;;;;0.84;100.00;102315.31;5094084;28;20028;-36
2022/01/16 04:28:04;;;;;;;64.80;35.90;;;;;;;0.87;100.00;102315.03;5093395;28;20020;-36
2022/01/16 04:30:29;;;;;;;66.72;34.83;;;;;;;0.82;100.00;102295.94;5093686;28;20027;-36
2022/01/16 04:32:55;;;;;;;69.53;37.42;;;;;;;0.87;100.00;102313.22;5093294;28;20028;-36
2022/01/16 04:35:20;;;;;;;69.83;38.23;;;;;;;0.87;100.00;102315.88;5093984;28;20028;-36
2022/01/16 04:37:46;;;;;;;68.78;37.67;;;;;;;0.89;100.00;102311.28;5093338;28;20118;-36
2022/01/16 04:40:13;;;;;;;66.00;36.90;;;;;;;0.90;100.00;102315.63;5094055;28;20024;-36
2022/01/16 04:45:22;;;;;;;63.47;33.72;;;;;;;0.94;100.00;102314.41;5093820;28;19961;-36
2022/01/16 04:47:50;;;;;;;67.60;38.13;;;;;;;0.90;100.00;102304.13;5093311;28;20024;-36
2022/01/16 04:50:15;;;;;;;62.92;32.55;;;;;;;1.07;100.00;102298.16;5093759;28;20311;-36
2022/01/16 04:52:42;;;;;;;60.80;36.03;;;;;;;0.99;100.00;102303.34;5093454;28;20414;-36
2022/01/16 04:55:09;;;;;;;67.65;37.97;;;;;;;0.95;100.00;102304.56;5092950;28;20036;-36
2022/01/16 04:57:35;;;;;;;63.28;36.40;;;;;;;0.95;100.00;102307.25;5093121;28;20024;-36
2022/01/16 05:00:01;;;;;;;70.20;38.95;;;;;;;0.96;100.00;102300.94;5097451;28;20024;-36
2022/01/16 05:02:26;;;;;;;65.32;39.30;;;;;;;0.98;100.00;102291.00;5097377;28;20063;-36
2022/01/16 05:04:52;;;;;;;66.30;38.67;;;;;;;0.97;100.00;102286.63;5098252;28;20031;-36
2022/01/16 05:07:17;;;;;;;67.63;40.03;;;;;;;0.92;100.00;102287.03;5097529;28;20043;-36
2022/01/16 05:09:42;;;;;;;68.00;41.30;;;;;;;1.00;100.00;102289.88;5097150;28;20043;-36
2022/01/16 05:12:12;;;;;;;70.67;39.53;;;;;;;1.05;100.00;102292.16;5096793;28;20032;-36
2022/01/16 05:17:21;;;;;;;67.40;41.42;;;;;;;1.04;100.00;102282.47;5097148;28;20039;-36
2022/01/16 05:19:47;;;;;;;70.77;40.77;;;;;;;1.07;100.00;102287.53;5096751;28;20056;-36
2022/01/16 05:22:12;;;;;;;67.37;40.27;;;;;;;0.99;100.00;102282.03;5096963;28;20031;-36
2022/01/16 05:24:37;;;;;;;68.10;41.10;;;;;;;1.02;100.00;102269.31;5097020;28;20115;-36
2022/01/16 05:27:05;;;;;;;66.30;41.37;;;;;;;1.11;100.00;102290.78;5097113;28;20107;-36
2022/01/16 05:29:30;;;;;;;64.00;40.45;;;;;;;1.14;100.00;102285.19;5097355;28;20027;-36
2022/01/16 05:31:56;;;;;;;68.60;41.35;;;;;;;1.15;100.00;102276.19;5096918;28;20050;-36
2022/01/16 05:34:23;;;;;;;66.07;39.43;;;;;;;1.05;100.00;102270.00;5096772;28;20032;-36
2022/01/16 05:36:49;;;;;;;66.03;40.78;;;;;;;1.13;100.00;102284.34;5096639;28;20028;-36
2022/01/16 05:39:14;;;;;;;65.10;39.63;;;;;;;1.19;100.00;102297.13;5097223;28;20032;-36
2022/01/16 05:41:40;;;;;;;62.47;38.40;;;;;;;1.29;100.00;102295.34;5096662;28;20020;-36
2022/01/16 05:44:06;;;;;;;65.50;40.83;;;;;;;1.24;100.00;102297.56;5096346;28;20033;-36
2022/01/16 05:46:31;;;;;;;65.70;39.33;;;;;;;1.18;100.00;102275.94;5096576;28;20149;-36
2022/01/16 05:48:57;;;;;;;62.70;40.57;;;;;;;1.24;100.00;102300.22;5096251;28;20304;-36
2022/01/16 05:51:22;;;;;;;66.70;42.40;;;;;;;1.22;100.00;102298.66;5095342;28;20070;-36
2022/01/16 05:53:50;;;;;;;68.97;42.60;;;;;;;1.19;100.00;102281.13;5096054;28;20336;-36
2022/01/16 05:56:16;;;;;;;64.93;41.60;;;;;;;1.31;100.00;102307.69;5097051;28;20024;-36
2022/01/16 05:58:41;;;;;;;64.80;40.90;;;;;;;1.11;100.00;102266.78;5096491;28;20043;-36
2022/01/16 06:01:07;;;;;;;69.80;41.33;;;;;;;1.27;100.00;102293.81;5096171;28;20055;-36
2022/01/16 06:03:32;;;;;;;66.23;40.90;;;;;;;1.33;100.00;102300.41;5097001;28;20384;-36
2022/01/16 06:05:58;;;;;;;68.47;41.33;;;;;;;1.32;100.00;102294.22;5096750;28;20444;-36
2022/01/16 06:08:23;;;;;;;70.20;41.70;;;;;;;1.21;100.00;102268.50;5096133;28;20380;-36
2022/01/16 06:10:48;;;;;;;61.50;40.17;;;;;;;1.32;100.00;102298.69;5096460;28;20110;-36
2022/01/16 06:13:14;;;;;;;69.53;42.13;;;;;;;1.32;100.00;102299.56;5095869;28;20479;-35
2022/01/16 06:15:40;;;;;;;67.83;43.13;;;;;;;1.19;100.00;102266.97;5096220;28;20035;-36
2022/01/16 06:18:06;;;;;;;;;;;;;;;1.42;100.00;102295.09;5096331;28;20031;-36
2022/01/16 06:20:31;;;;;;;67.90;42.42;;;;;;;1.39;100.00;102300.69;5096678;28;20230;-36
2022/01/16 06:22:56;;;;;;;66.20;41.47;;;;;;;1.43;100.00;102288.78;5095599;28;20044;-36
2022/01/16 06:25:23;;;;;;;73.87;46.23;;;;;;;1.45;100.00;102302.81;5095752;28;20028;-36
2022/01/16 06:27:49;;;;;;;72.68;44.40;;;;;;;1.42;100.00;102287.09;5095596;28;20024;-36
2022/01/16 06:30:14;;;;;;;78.03;46.95;;;;;;;1.48;100.00;102304.38;5095480;28;20039;-36
2022/01/16 06:32:40;;;;;;;73.23;46.50;;;;;;;1.43;100.00;102299.44;5095903;28;20031;-36
2022/01/16 06:35:07;;;;;;;78.15;49.00;;;;;;;1.48;100.00;102309.72;5095369;28;20086;-36
2022/01/16 06:37:32;;;;;;;74.90;45.03;;;;;;;1.54;100.00;102317.16;5095385;28;20032;-43
2022/01/16 06:39:57;;;;;;;80.47;50.17;;;;;;;1.54;100.00;102320.66;5096213;28;20032;-36
2022/01/16 06:42:23;;;;;;;76.90;46.23;;;;;;;1.59;100.00;102332.75;5095686;28;20055;-36
2022/01/16 06:44:48;;;;;;;74.03;45.80;;;;;;;1.63;100.00;102328.84;5095321;28;20020;-36
2022/01/16 06:47:13;;;;;;;72.87;45.97;;;;;;;1.64;100.00;102334.03;5095844;28;20024;-36
2022/01/16 06:49:39;;;;;;;71.87;44.50;;;;;;;1.71;100.00;102326.34;5095419;28;20032;-36
2022/01/16 06:52:05;;;;;;;77.03;46.20;;;;;;;1.73;100.00;102335.88;5093838;28;20036;-36
2022/01/16 06:54:30;;;;;;;79.93;46.00;;;;;;;1.64;100.00;102320.69;5095640;28;20035;-36
2022/01/16 06:56:56;;;;;;;79.03;48.80;;;;;;;1.77;100.00;102336.47;5094920;28;20032;-36
2022/01/16 06:59:21;;;;;;;71.47;44.90;;;;;;;1.80;100.00;102345.00;5095413;28;20032;-36
2022/01/16 07:01:46;;;;;;;71.30;44.43;;;;;;;1.85;100.00;102349.09;5094786;28;20301;-36
2022/01/16 07:04:12;;;;;;;74.90;46.63;;;;;;;1.85;100.00;102341.09;5095163;28;20123;-36
2022/01/16 07:06:37;;;;;;;74.77;45.93;;;;;;;1.86;100.00;102332.97;5095073;28;20024;-36
2022/01/16 07:09:03;;;;;;;70.57;44.60;;;;;;;1.88;100.00;102343.50;5094680;28;20036;-36
2022/01/16 07:11:28;;;;;;;71.78;45.80;;;;;;;1.90;100.00;102347.69;5094907;28;20027;-36
2022/01/16 07:13:53;;;;;;;64.30;41.33;;;;;;;1.90;100.00;102352.19;5095163;28;20451;-36
2022/01/16 07:16:19;;;;;;;82.70;47.03;;;;;;;1.90;100.00;102352.19;5094744;28;20024;-36
2022/01/16 07:18:44;;;;;;;77.83;46.50;;;;;;;1.90;100.00;102352.19;5094799;28;20526;-36
2022/01/16 07:21:13;;;;;;;70.40;44.10;;;;;;;1.90;100.00;102362.84;5095257;28;20040;-36
2022/01/16 07:23:46;;;;;;;66.78;43.55;;;;;;;1.98;100.00;102382.53;5094989;28;20028;-36
2022/01/16 07:26:16;;;;;;;70.13;43.72;;;;;;;2.00;100.00;102385.06;5094518;28;20054;-36
2022/01/16 07:28:42;;;;;;;63.67;42.35;;;;;;;2.04;100.00;102392.66;5095061;28;20341;-36
2022/01/16 07:31:07;;;;;;;70.13;43.83;;;;;;;2.06;100.00;102397.88;5094582;28;20035;-36
2022/01/16 07:33:32;;;;;;;68.70;41.93;;;;;;;2.06;100.00;102390.72;5094773;28;20456;-36
2022/01/16 07:35:58;;;;;;;63.97;40.77;;;;;;;2.13;100.00;102398.16;5094733;28;20085;-36
2022/01/16 07:38:23;;;;;;;67.57;41.97;;;;;;;2.08;100.00;102397.72;5094428;28;20503;-36
2022/01/16 07:40:48;;;;;;;62.10;40.37;;;;;;;2.17;100.00;102402.25;5095044;28;20024;-36
2022/01/16 07:43:14;;;;;;;57.80;38.03;;;;;;;2.10;100.00;102391.28;5093969;28;20028;-36
2022/01/16 07:45:39;;;;;;;57.70;37.20;;;;;;;2.22;100.00;102395.50;5094548;28;20487;-36
2022/01/16 07:48:06;;;;;;;61.20;39.38;;;;;;;2.22;100.00;102395.50;5094209;28;20169;-43
2022/01/16 07:50:32;;;;;;;63.05;39.08;;;;;;;2.25;100.00;102408.59;5093970;28;20032;-37
2022/01/16 07:52:58;;;;;;;60.72;38.40;;;;;;;2.18;100.00;102399.44;5094263;28;20020;-36
2022/01/16 07:55:26;;;;;;;60.20;37.72;;;;;;;2.22;100.00;102403.53;5094702;28;20020;-37
2022/01/16 07:57:52;;;;;;;58.50;38.35;;;;;;;2.22;100.00;102408.84;5094092;28;20028;-36
2022/01/16 08:00:18;;;;;;;57.33;39.08;;;;;;;2.35;100.00;102431.78;5094095;28;20024;-37
2022/01/16 08:02:44;;;;;;;58.97;37.20;;;;;;;2.38;100.00;102431.50;5094259;28;20422;-36
2022/01/16 08:05:09;;;;;;;62.00;38.47;;;;;;;2.39;100.00;102427.84;5094242;28;20032;-36
2022/01/16 08:07:35;;;;;;;55.40;36.20;;;;;;;2.42;100.00;102441.75;5094442;28;20028;-36
2022/01/16 08:10:00;;;;;;;56.58;39.15;;;;;;;2.42;100.00;102428.41;5094369;28;20038;-36
2022/01/16 08:12:26;;;;;;;60.20;38.13;;;;;;;2.45;100.00;102428.16;5093653;28;20023;-36
2022/01/16 08:14:51;;;;;;;59.27;36.67;;;;;;;2.47;100.00;102420.00;5094329;28;20407;-36
2022/01/16 08:17:16;;;;;;;68.13;40.17;;;;;;;2.49;100.00;102418.00;5093816;28;20028;-37
2022/01/16 08:19:42;;;;;;;64.53;38.00;;;;;;;2.50;100.00;102414.38;5093775;28;20078;-37
2022/01/16 08:22:08;;;;;;;57.97;35.27;;;;;;;2.53;100.00;102417.59;5093616;28;20073;-37
2022/01/16 08:24:33;;;;;;;65.13;39.20;;;;;;;2.46;100.00;102402.28;5093617;28;20042;-37
2022/01/16 08:26:59;;;;;;;61.67;38.40;;;;;;;2.56;100.00;102408.47;5093542;28;20032;-37
2022/01/16 08:29:24;;;;;;;60.30;37.30;;;;;;;2.47;100.00;102390.63;5093961;28;20105;-37
2022/01/16 08:31:50;;;;;;;64.00;36.27;;;;;;;2.64;100.00;102413.13;5093189;28;20027;-37
2022/01/16 08:34:15;;;;;;;57.50;36.67;;;;;;;2.67;100.00;102411.00;5092785;28;20146;-36
2022/01/16 08:36:40;;;;;;;64.30;37.47;;;;;;;2.59;100.00;102397.53;5093429;28;20035;-38
2022/01/16 08:39:06;;;;;;;59.23;35.70;;;;;;;2.70;100.00;102416.06;5093850;28;20119;-38
2022/01/16 08:41:32;;;;;;;58.17;36.57;;;;;;;2.73;100.00;102409.59;5093305;28;20032;-38
2022/01/16 08:43:57;;;;;;;59.25;37.60;;;;;;;2.72;100.00;102421.25;5093885;28;20024;-37
2022/01/16 08:46:23;;;;;;;62.13;37.47;;;;;;;2.69;100.00;102406.38;5093076;28;20031;-37
2022/01/16 08:48:51;;;;;;;65.20;38.43;;;;;;;2.76;100.00;102412.81;5093283;28;20106;-36
2022/01/16 08:51:16;;;;;;;62.42;38.15;;;;;;;2.77;100.00;102411.84;5094019;28;20286;-38
2022/01/16 08:53:41;;;;;;;66.47;38.03;;;;;;;2.81;100.00;102429.28;5093060;28;20020;-36
2022/01/16 08:56:07;;;;;;;65.57;38.90;;;;;;;2.83;100.00;102438.00;5093797;28;20030;-36
2022/01/16 08:58:33;;;;;;;62.53;36.95;;;;;;;2.77;100.00;102427.84;5093015;28;20047;-36
2022/01/16 09:00:58;;;;;;;62.40;37.57;;;;;;;2.88;100.00;102444.72;5093912;28;20443;-35
2022/01/16 09:03:24;;;;;;;70.60;40.80;;;;;;;2.88;100.00;102436.72;5093674;28;20109;-36
2022/01/16 09:05:50;;;;;;;73.60;41.03;;;;;;;2.92;100.00;102446.97;5093142;28;20031;-36
2022/01/16 09:08:17;;;;;;;65.32;38.67;;;;;;;2.95;100.00;102452.06;5093695;28;20353;-37
2022/01/16 09:10:42;;;;;;;;;;;;;;;2.99;100.00;102453.47;5094080;28;20073;-36
2022/01/16 09:13:12;;;;;;;69.13;37.85;;;;;;;2.92;100.00;102438.97;5093019;28;19912;-37
2022/01/16 09:15:39;;;;;;;71.07;38.67;;;;;;;3.03;100.00;102454.03;5093299;28;20028;-37
2022/01/16 09:18:05;;;;;;;67.55;39.00;;;;;;;3.04;100.00;102453.88;5092762;28;20020;-36
2022/01/16 09:20:30;;;;;;;;;;;;;;;3.09;100.00;102456.13;5093394;28;20076;-35
2022/01/16 09:22:56;;;;;;;71.38;38.95;;;;;;;3.09;100.00;102464.13;5093137;28;20004;-37
2022/01/16 09:25:22;;;;;;;72.43;40.87;;;;;;;3.09;100.00;102459.63;5093032;28;20448;-37
2022/01/16 09:27:47;;;;;;;;;;;;;;;3.15;100.00;102466.25;5093364;28;20418;-37
2022/01/16 09:30:13;;;;;;;75.88;41.75;;;;;;;3.15;100.00;102468.91;5093183;28;19912;-37
2022/01/16 09:32:38;;;;;;;72.90;39.90;;;;;;;3.11;100.00;102462.16;5092606;28;20460;-37
2022/01/16 09:35:06;;;;;;;82.03;43.43;;;;;;;3.19;100.00;102478.34;5091705;28;20040;-37
2022/01/16 09:37:31;;;;;;;78.65;44.33;;;;;;;3.23;100.00;102487.75;5092730;28;20111;-37
2022/01/16 09:39:58;;;;;;;82.13;44.53;;;;;;;3.19;100.00;102473.00;5092849;28;20127;-41
2022/01/16 09:42:26;;;;;;;83.97;45.30;;;;;;;3.28;100.00;102479.31;5092800;28;20376;-36
2022/01/16 09:44:52;;;;;;;91.32;47.53;;;;;;;3.31;100.00;102485.19;5093943;28;20032;-37
2022/01/16 09:47:17;;;;;;;;;;;;;;;3.36;100.00;102493.63;5096716;28;20032;-37
2022/01/16 09:49:44;;;;;;;94.53;47.88;;;;;;;3.29;100.00;102473.81;5097569;28;19908;-37
2022/01/16 09:52:09;;;;;;;91.97;49.97;;;;;;;3.38;100.00;102495.34;5096683;28;20020;-37
2022/01/16 09:54:36;;;;;;;108.77;53.57;;;;;;;3.40;100.00;102499.53;5096978;28;20089;-37
2022/01/16 09:57:02;;;;;;;108.57;52.17;;;;;;;3.41;100.00;102490.53;5096355;28;20032;-37
2022/01/16 09:59:27;;;;;;;113.93;54.67;;;;;;;3.27;100.00;102461.56;5096369;28;20384;-37
2022/01/16 10:01:53;;;;;;;111.93;55.20;;;;;;;3.40;100.00;102493.34;5095942;28;20051;-38
2022/01/16 10:04:35;;;;;;;115.27;54.80;;;;;;;3.42;100.00;102508.28;5096217;28;20396;-37
2022/01/16 10:07:06;;;;;;;116.82;57.20;;;;;;;3.40;100.00;102507.56;5096910;28;20281;-37
2022/01/16 10:09:35;;;;;;;117.07;54.30;;;;;;;3.45;100.00;102521.34;5095837;28;20460;-38
2022/01/16 10:12:03;;;;;;;132.70;59.25;;;;;;;3.45;100.00;102512.50;5095956;28;20028;-38
2022/01/16 10:14:43;;;;;;;125.68;57.05;;;;;;;3.47;100.00;102526.59;5096156;28;20483;-37
2022/01/16 10:17:12;;;;;;;119.18;55.40;;;;;;;3.49;100.00;102520.09;5096945;28;20107;-37
2022/01/16 10:19:38;;;;;;;119.85;58.33;;;;;;;3.53;100.00;102526.84;5096342;28;20044;-37
2022/01/16 10:22:06;;;;;;;123.40;53.38;;;;;;;3.46;100.00;102514.16;5096554;28;20027;-37
2022/01/16 10:24:34;;;;;;;124.30;55.47;;;;;;;3.58;100.00;102537.13;5095862;28;20111;-37
2022/01/16 10:27:08;;;;;;;118.38;53.22;;;;;;;3.62;100.00;102525.13;5095595;28;20028;-37
2022/01/16 10:29:45;;;;;;;133.02;56.17;;;;;;;3.65;100.00;102532.03;5095991;28;20376;-37
2022/01/16 10:32:14;;;;;;;114.50;53.35;;;;;;;3.72;100.00;102531.31;5095872;28;20028;-37
2022/01/16 10:34:40;;;;;;;112.65;51.75;;;;;;;3.75;100.00;102530.16;5095920;28;20039;-37
2022/01/16 10:37:32;;;;;;;112.60;52.30;;;;;;;3.82;100.00;102539.31;5095308;28;20468;-37
2022/01/16 10:39:59;;;;;;;102.43;50.70;;;;;;;3.81;100.00;102537.63;5094070;28;20044;-37
2022/01/16 10:42:26;;;;;;;107.47;50.72;;;;;;;3.86;100.00;102533.53;5095122;28;20060;-37
2022/01/16 10:45:13;;;;;;;102.50;47.85;;;;;;;3.92;100.00;102537.44;5095456;28;20020;-37
2022/01/16 10:47:53;;;;;;;112.55;54.22;;;;;;;3.92;100.00;102531.25;5095998;28;20026;-37
2022/01/16 10:50:37;;;;;;;112.00;53.10;;;;;;;3.98;100.00;102536.00;5095680;28;20502;-38
2022/01/16 10:53:07;;;;;;;103.90;47.33;;;;;;;3.99;100.00;102527.00;5095680;28;20032;-37
2022/01/16 10:55:41;;;;;;;106.30;50.67;;;;;;;4.04;100.00;102535.41;5095260;28;20357;-37
2022/01/16 10:58:11;;;;;;;95.80;45.65;;;;;;;3.81;100.00;102484.94;5094758;28;20020;-37
2022/01/16 11:00:43;;;;;;;101.38;48.20;;;;;;;4.08;100.00;102540.34;5094717;28;20024;-38
2022/01/16 11:03:10;;;;;;;102.70;48.75;;;;;;;4.05;100.00;102529.06;5095627;28;20024;-37
2022/01/16 11:05:44;;;;;;;98.40;46.22;;;;;;;4.08;100.00;102532.31;5094908;28;20119;-37
2022/01/16 11:08:12;;;;;;;96.65;46.58;;;;;;;4.11;100.00;102532.03;5095217;28;20028;-37
2022/01/16 11:10:43;;;;;;;106.47;47.63;;;;;;;4.14;100.00;102538.91;5093055;28;20392;-37
2022/01/16 11:13:14;;;;;;;106.68;52.65;;;;;;;4.18;100.00;102542.13;5095211;28;20048;-37
2022/01/16 11:15:46;;;;;;;111.55;51.50;;;;;;;4.09;100.00;102525.13;5095016;28;20024;-37
2022/01/16 11:18:12;;;;;;;111.07;51.40;;;;;;;4.21;100.00;102539.19;5095059;28;20052;-37
2022/01/16 11:20:39;;;;;;;107.95;50.65;;;;;;;4.17;100.00;102530.59;5094827;28;20052;-37
2022/01/16 11:25:39;;;;;;;108.93;49.30;;;;;;;4.25;100.00;102540.56;5095233;28;20444;-37
2022/01/16 11:28:10;;;;;;;107.40;49.20;;;;;;;4.24;100.00;102546.88;5094557;28;20035;-37
2022/01/16 11:30:48;;;;;;;105.00;47.20;;;;;;;4.22;100.00;102533.66;5094198;28;20039;-37
2022/01/16 11:33:15;;;;;;;119.80;53.25;;;;;;;4.23;100.00;102540.69;5094450;28;20020;-37
2022/01/16 11:35:55;;;;;;;114.97;48.95;;;;;;;4.26;100.00;102548.44;5093448;28;20055;-38
2022/01/16 11:38:22;;;;;;;103.15;48.70;;;;;;;4.27;100.00;102543.94;5094981;28;20040;-37
2022/01/16 11:40:49;;;;;;;117.70;53.22;;;;;;;4.25;100.00;102546.75;5094985;28;20110;-37
2022/01/16 11:43:37;;;;;;;112.90;48.53;;;;;;;4.21;100.00;102534.66;5094262;28;20028;-35
2022/01/16 11:46:11;;;;;;;110.05;50.78;;;;;;;4.28;100.00;102545.59;5093945;28;20039;-37
2022/01/16 11:48:36;;;;;;;104.20;48.65;;;;;;;4.27;100.00;102542.09;5093899;28;20391;-37